createdAt,value
2018-04-06T00:03:21.059Z,2.80
2018-04-06T00:08:24.165Z,2.80
2018-04-06T00:18:32.673Z,2.90
2018-04-06T00:23:36.143Z,2.90
2018-04-06T00:28:39.244Z,2.90
2018-04-06T00:33:42.328Z,2.80
2018-04-06T00:38:47.191Z,2.80
2018-04-06T00:43:50.286Z,2.90
2018-04-06T00:48:54.362Z,2.80
2018-04-06T00:59:03.375Z,2.70
2018-04-06T01:14:15.327Z,2.60
2018-04-06T01:19:19.170Z,2.50
2018-04-06T01:24:22.679Z,2.50
2018-04-06T01:29:25.783Z,2.50
2018-04-06T01:34:29.634Z,2.60
2018-04-06T01:39:32.976Z,2.60
2018-04-06T01:44:36.455Z,2.50
2018-04-06T01:49:39.935Z,2.50
2018-04-06T01:54:44.162Z,2.50
2018-04-06T01:59:48.908Z,2.50
2018-04-06T02:04:53.526Z,2.50
2018-04-06T02:09:56.627Z,2.50
2018-04-06T02:15:01.211Z,2.50
2018-04-06T02:20:05.044Z,2.50
2018-04-06T02:25:08.522Z,2.50
2018-04-06T02:30:11.620Z,2.50
2018-04-06T02:35:15.472Z,2.50
2018-04-06T02:40:18.579Z,2.50
2018-04-06T02:45:22.429Z,2.50
2018-04-06T02:55:30.704Z,2.40
2018-04-06T03:10:42.641Z,2.50
2018-04-06T03:20:51.793Z,2.50
2018-04-06T03:25:54.871Z,2.50
2018-04-06T03:30:58.369Z,2.50
2018-04-06T03:36:02.231Z,2.60
2018-04-06T03:41:06.075Z,2.60
2018-04-06T03:46:10.325Z,2.70
2018-04-06T03:51:13.430Z,2.60
2018-04-06T04:01:20.982Z,2.70
2018-04-06T04:06:24.068Z,2.70
2018-04-06T04:11:28.310Z,2.60
2018-04-06T04:16:31.800Z,2.50
2018-04-06T04:21:34.905Z,2.40
2018-04-06T04:26:38.008Z,2.40
2018-04-06T04:31:41.082Z,2.30
2018-04-06T04:41:49.422Z,2.20
2018-04-06T04:46:53.299Z,2.10
2018-04-06T04:51:56.420Z,2.10
2018-04-06T05:02:04.672Z,2.20
2018-04-06T05:07:07.772Z,2.20
2018-04-06T05:12:10.861Z,2.20
2018-04-06T05:17:13.946Z,2.30
2018-04-06T05:27:21.866Z,2.30
2018-04-06T05:32:26.496Z,2.40
2018-04-06T05:37:31.083Z,2.40
2018-04-06T05:42:35.652Z,2.50
2018-04-06T05:52:43.200Z,2.70
2018-04-06T05:57:46.279Z,3.00
2018-04-06T06:02:50.135Z,3.60
2018-04-06T06:07:53.215Z,4.30
2018-04-06T06:12:57.809Z,4.60
2018-04-06T06:18:02.408Z,4.70
2018-04-06T06:23:06.239Z,5.10
2018-04-06T06:28:10.096Z,5.80
2018-04-06T06:33:13.592Z,6.50
2018-04-06T06:38:16.704Z,6.80
2018-04-06T06:43:19.774Z,7.20
2018-04-06T06:48:22.875Z,7.10
2018-04-06T06:58:30.777Z,7.70
2018-04-06T07:03:33.859Z,7.80
2018-04-06T07:08:37.725Z,7.90
2018-04-06T07:18:46.395Z,8.90
2018-04-06T07:23:49.894Z,9.00
2018-04-06T07:28:53.376Z,9.30
2018-04-06T07:39:01.313Z,10.20
2018-04-06T07:49:09.601Z,10.10
2018-04-06T07:54:13.672Z,9.90
2018-04-06T08:04:21.220Z,11.90
2018-04-06T08:14:29.503Z,12.70
2018-04-06T08:19:32.988Z,12.60
2018-04-06T08:24:36.482Z,12.60
2018-04-06T08:29:41.085Z,12.80
2018-04-06T08:34:44.168Z,12.50
2018-04-06T08:39:48.869Z,12.10
2018-04-06T08:44:53.468Z,13.40
2018-04-06T08:55:03.051Z,12.30
2018-04-06T09:00:07.278Z,12.60
2018-04-06T09:15:19.972Z,12.70
2018-04-06T09:25:27.504Z,13.30
2018-04-06T09:35:35.027Z,14.20
2018-04-06T09:40:38.499Z,14.00
2018-04-06T09:55:51.585Z,13.80
2018-04-06T10:00:58.463Z,13.30
2018-04-06T10:06:02.674Z,13.00
2018-04-06T10:16:10.227Z,13.30
2018-04-06T10:21:13.704Z,13.70
2018-04-06T10:26:17.188Z,13.70
2018-04-06T10:31:21.624Z,13.80
2018-04-06T10:36:25.874Z,12.80
2018-04-06T10:41:28.942Z,12.10
2018-04-06T10:46:32.857Z,12.30
2018-04-06T10:51:37.811Z,12.60
2018-04-06T11:01:46.109Z,12.60
2018-04-06T11:06:49.188Z,12.90
2018-04-06T11:16:58.227Z,13.30
2018-04-06T11:22:01.334Z,13.30
2018-04-06T11:27:04.410Z,13.40
2018-04-06T11:37:12.724Z,13.20
2018-04-06T11:42:15.794Z,13.50
2018-04-06T11:47:18.884Z,13.60
2018-04-06T11:52:22.062Z,13.80
2018-04-06T11:57:25.127Z,13.60
2018-04-06T12:02:28.968Z,13.50
2018-04-06T12:07:32.439Z,13.80
2018-04-06T12:12:35.919Z,13.80
2018-04-06T12:22:44.587Z,14.10
2018-04-06T12:27:49.011Z,13.90
2018-04-06T12:32:53.453Z,14.00
2018-04-06T12:37:57.308Z,14.20
2018-04-06T12:48:04.836Z,14.30
2018-04-06T12:53:08.312Z,14.30
2018-04-06T13:03:16.219Z,14.30
2018-04-06T13:08:20.464Z,14.40
2018-04-06T13:13:24.311Z,14.50
2018-04-06T13:18:27.814Z,14.50
2018-04-06T13:23:31.664Z,14.40
2018-04-06T13:28:34.752Z,14.60
2018-04-06T13:33:37.841Z,14.60
2018-04-06T13:38:41.322Z,14.50
2018-04-06T13:43:44.400Z,14.50
2018-04-06T13:48:48.256Z,14.60
2018-04-06T13:53:51.744Z,14.80
2018-04-06T13:58:54.845Z,14.90
2018-04-06T14:03:59.462Z,14.90
2018-04-06T14:14:08.501Z,14.90
2018-04-06T14:19:12.707Z,14.90
2018-04-06T14:29:21.368Z,15.00
2018-04-06T14:34:24.447Z,14.90
2018-04-06T14:39:28.302Z,15.10
2018-04-06T14:44:31.401Z,15.10
2018-04-06T14:49:35.268Z,15.20
2018-04-06T14:54:38.363Z,15.30
2018-04-06T14:59:41.456Z,15.20
2018-04-06T15:04:44.544Z,15.30
2018-04-06T15:09:47.845Z,15.30
2018-04-06T15:14:52.449Z,15.30
2018-04-06T15:19:57.118Z,15.30
2018-04-06T15:25:00.949Z,15.20
2018-04-06T15:30:05.077Z,15.20
2018-04-06T15:35:08.583Z,15.20
2018-04-06T15:40:13.167Z,15.30
2018-04-06T15:50:21.475Z,15.30
2018-04-06T15:55:24.536Z,15.20
2018-04-06T16:00:27.623Z,15.30
2018-04-06T16:10:36.667Z,15.30
2018-04-06T16:15:39.752Z,15.30
2018-04-06T16:20:43.607Z,15.30
2018-04-06T16:25:47.452Z,15.20
2018-04-06T16:30:52.047Z,15.20
2018-04-06T16:35:55.124Z,15.20
2018-04-06T16:40:59.716Z,15.20
2018-04-06T16:46:02.801Z,15.20
2018-04-06T16:51:05.899Z,15.00
2018-04-06T16:56:09.375Z,15.00
2018-04-06T17:01:13.965Z,15.00
2018-04-06T17:06:17.055Z,14.90
2018-04-06T17:11:20.135Z,14.80
2018-04-06T17:16:24.363Z,14.70
2018-04-06T17:26:32.645Z,14.40
2018-04-06T17:36:40.557Z,14.20
2018-04-06T17:41:43.647Z,14.10
2018-04-06T17:46:46.749Z,14.00
2018-04-06T17:56:55.401Z,13.70
2018-04-06T18:01:58.480Z,13.70
2018-04-06T18:07:01.959Z,13.50
2018-04-06T18:12:05.031Z,13.40
2018-04-06T18:17:08.877Z,13.30
2018-04-06T18:22:12.721Z,13.10
2018-04-06T18:27:16.205Z,13.00
2018-04-06T18:32:20.062Z,13.00
2018-04-06T18:37:23.147Z,12.90
2018-04-06T18:42:26.231Z,12.80
2018-04-06T18:52:35.252Z,12.70
2018-04-06T18:57:38.348Z,12.60
2018-04-06T19:02:42.190Z,12.50
2018-04-06T19:07:45.275Z,12.40
2018-04-06T19:17:53.188Z,12.00
2018-04-06T19:22:56.663Z,12.00
2018-04-06T19:27:59.756Z,11.90
2018-04-06T19:38:07.279Z,11.80
2018-04-06T19:43:11.128Z,11.70
2018-04-06T19:48:14.220Z,11.70
2018-04-06T19:58:23.235Z,11.60
2018-04-06T20:03:26.315Z,11.50
2018-04-06T20:08:30.164Z,11.40
2018-04-06T20:13:34.379Z,11.40
2018-04-06T20:18:38.979Z,11.30
2018-04-06T20:28:47.256Z,11.30
2018-04-06T20:38:55.575Z,11.40
2018-04-06T20:43:59.072Z,11.50
2018-04-06T20:49:02.561Z,11.60
2018-04-06T20:54:06.404Z,11.70
2018-04-06T20:59:10.262Z,11.60
2018-04-06T21:04:13.344Z,11.60
2018-04-06T21:09:16.444Z,11.50
2018-04-06T21:14:19.555Z,11.60
2018-04-06T21:19:22.634Z,11.50
2018-04-06T21:24:26.480Z,11.50
2018-04-06T21:34:34.433Z,11.50
2018-04-06T21:39:37.913Z,11.50
2018-04-06T21:44:41.805Z,11.50
2018-04-06T21:49:45.659Z,11.50
2018-04-06T21:54:49.518Z,11.50
2018-04-06T21:59:52.601Z,11.40
2018-04-06T22:04:56.821Z,11.50
2018-04-06T22:15:05.855Z,11.50
2018-04-06T22:20:08.956Z,11.50
2018-04-06T22:30:16.476Z,11.50
2018-04-06T22:35:20.708Z,11.50
2018-04-06T22:40:24.940Z,11.40
2018-04-06T22:45:28.790Z,11.30
2018-04-06T22:55:36.720Z,11.40
2018-04-06T23:10:48.680Z,11.50
2018-04-06T23:15:51.776Z,11.60
2018-04-06T23:20:54.880Z,11.50
2018-04-06T23:25:57.968Z,11.50
2018-04-06T23:36:05.496Z,11.50
2018-04-06T23:46:14.156Z,11.40
2018-04-06T23:56:22.460Z,11.10
